createdAt,value
2022-10-25T00:01:18.293Z,2.33
2022-10-25T00:03:45.378Z,1.60
2022-10-25T00:06:12.649Z,2.17
2022-10-25T00:08:39.813Z,1.63
2022-10-25T00:11:08.085Z,2.00
2022-10-25T00:13:34.767Z,1.75
2022-10-25T00:16:01.436Z,2.80
2022-10-25T00:18:28.062Z,2.03
2022-10-25T00:20:54.740Z,1.55
2022-10-25T00:23:21.463Z,1.33
2022-10-25T00:25:48.038Z,2.28
2022-10-25T00:28:14.676Z,0.82
2022-10-25T00:30:41.261Z,1.90
2022-10-25T00:33:07.907Z,1.45
2022-10-25T00:35:36.476Z,2.63
2022-10-25T00:38:03.314Z,1.75
2022-10-25T00:40:29.948Z,1.23
2022-10-25T00:42:56.561Z,1.92
2022-10-25T00:45:27.222Z,2.03
2022-10-25T00:47:56.594Z,1.95
2022-10-25T00:50:48.292Z,1.80
2022-10-25T00:53:22.996Z,1.63
2022-10-25T00:55:57.292Z,2.13
2022-10-25T00:58:28.003Z,2.17
2022-10-25T01:00:56.499Z,1.58
2022-10-25T01:03:24.533Z,1.55
2022-10-25T01:05:51.746Z,2.50
2022-10-25T01:08:20.170Z,3.42
2022-10-25T01:10:47.950Z,2.90
2022-10-25T01:13:15.139Z,2.97
2022-10-25T01:15:57.125Z,2.28
2022-10-25T01:18:43.950Z,2.78
2022-10-25T01:21:29.233Z,3.05
2022-10-25T01:24:27.829Z,3.03
2022-10-25T01:27:09.645Z,4.35
2022-10-25T01:29:42.093Z,3.42
2022-10-25T01:32:24.111Z,4.50
2022-10-25T01:34:57.162Z,3.75
2022-10-25T01:37:36.494Z,3.20
2022-10-25T01:40:16.846Z,2.35
2022-10-25T01:43:02.907Z,2.72
2022-10-25T01:45:45.143Z,3.13
2022-10-25T01:48:21.367Z,3.13
2022-10-25T01:50:48.779Z,3.45
2022-10-25T01:53:16.303Z,3.25
2022-10-25T01:55:57.463Z,3.05
2022-10-25T01:58:49.143Z,3.50
2022-10-25T02:01:57.178Z,3.95
2022-10-25T02:05:09.820Z,3.22
2022-10-25T02:07:46.949Z,3.67
2022-10-25T02:10:29.466Z,3.85
2022-10-25T02:15:40.139Z,5.22
2022-10-25T02:18:17.163Z,3.88
2022-10-25T02:20:46.769Z,3.45
2022-10-25T02:23:14.700Z,4.38
2022-10-25T02:25:42.565Z,4.18
2022-10-25T02:28:14.533Z,5.22
2022-10-25T02:30:43.969Z,6.47
2022-10-25T02:33:11.695Z,6.60
2022-10-25T02:35:39.097Z,5.75
2022-10-25T02:38:06.113Z,5.40
2022-10-25T02:40:32.878Z,5.25
2022-10-25T02:42:59.535Z,5.25
2022-10-25T02:45:26.119Z,6.13
2022-10-25T02:47:52.699Z,6.88
2022-10-25T02:50:19.297Z,7.28
2022-10-25T02:52:46.079Z,5.68
2022-10-25T02:55:13.004Z,6.78
2022-10-25T02:57:39.580Z,7.15
2022-10-25T03:00:07.709Z,7.57
2022-10-25T03:02:34.403Z,7.60
2022-10-25T03:05:01.058Z,7.55
2022-10-25T03:07:27.662Z,6.43
2022-10-25T03:09:54.324Z,8.25
2022-10-25T03:12:20.970Z,6.88
2022-10-25T03:14:47.569Z,8.10
2022-10-25T03:17:14.148Z,7.05
2022-10-25T03:19:40.726Z,6.47
2022-10-25T03:22:07.342Z,8.13
2022-10-25T03:24:33.959Z,9.85
2022-10-25T03:27:01.517Z,9.52
2022-10-25T03:29:28.374Z,6.70
2022-10-25T03:31:54.921Z,7.88
2022-10-25T03:34:21.550Z,9.70
2022-10-25T03:36:48.095Z,8.43
2022-10-25T03:39:14.733Z,9.13
2022-10-25T03:41:41.362Z,9.10
2022-10-25T03:44:07.938Z,7.05
2022-10-25T03:46:34.667Z,7.53
2022-10-25T03:49:01.261Z,6.60
2022-10-25T03:51:28.013Z,7.38
2022-10-25T03:53:54.613Z,8.52
2022-10-25T03:56:21.228Z,10.13
2022-10-25T03:58:47.862Z,10.23
2022-10-25T04:01:14.730Z,10.05
2022-10-25T04:03:41.542Z,8.48
2022-10-25T04:06:08.188Z,8.38
2022-10-25T04:08:34.806Z,9.13
2022-10-25T04:11:01.376Z,6.65
2022-10-25T04:13:28.151Z,9.10
2022-10-25T04:15:54.746Z,7.43
2022-10-25T04:18:21.896Z,8.18
2022-10-25T04:20:48.507Z,9.13
2022-10-25T04:23:15.063Z,6.18
2022-10-25T04:25:41.759Z,9.32
2022-10-25T04:28:08.326Z,7.75
2022-10-25T04:30:37.934Z,6.10
2022-10-25T04:33:05.563Z,6.82
2022-10-25T04:35:32.205Z,6.63
2022-10-25T04:37:59.038Z,6.38
2022-10-25T04:40:25.657Z,7.80
2022-10-25T04:42:52.318Z,7.70
2022-10-25T04:45:19.025Z,6.45
2022-10-25T04:47:45.759Z,5.95
2022-10-25T04:50:12.402Z,7.47
2022-10-25T04:52:39.028Z,5.82
2022-10-25T04:55:05.829Z,7.53
2022-10-25T04:57:32.385Z,5.00
2022-10-25T04:59:59.126Z,7.15
2022-10-25T05:02:26.025Z,5.95
2022-10-25T05:04:52.714Z,5.72
2022-10-25T05:07:20.384Z,8.45
2022-10-25T05:09:47.892Z,6.95
2022-10-25T05:12:15.375Z,6.40
2022-10-25T05:14:42.028Z,6.55
2022-10-25T05:17:08.597Z,6.70
2022-10-25T05:19:35.198Z,8.77
2022-10-25T05:22:01.863Z,6.55
2022-10-25T05:24:28.533Z,6.75
2022-10-25T05:26:55.282Z,5.97
2022-10-25T05:29:21.928Z,8.20
2022-10-25T05:31:48.522Z,8.05
2022-10-25T05:34:15.189Z,7.18
2022-10-25T05:36:41.818Z,8.20
2022-10-25T05:39:08.364Z,7.82
2022-10-25T05:41:37.127Z,8.45
2022-10-25T05:44:05.409Z,8.20
2022-10-25T05:46:32.374Z,7.38
2022-10-25T05:48:59.848Z,9.63
2022-10-25T05:51:34.783Z,8.52
2022-10-25T05:54:07.940Z,6.70
2022-10-25T05:59:09.346Z,8.88
2022-10-25T06:01:40.913Z,7.47
2022-10-25T06:04:08.196Z,7.50
2022-10-25T06:06:36.210Z,7.63
2022-10-25T06:09:03.371Z,6.93
2022-10-25T06:11:30.375Z,7.40
2022-10-25T06:13:57.288Z,7.75
2022-10-25T06:16:24.563Z,6.53
2022-10-25T06:18:52.184Z,7.63
2022-10-25T06:21:21.631Z,7.68
2022-10-25T06:23:48.877Z,6.05
2022-10-25T06:26:18.828Z,8.38
2022-10-25T06:28:45.600Z,6.78
2022-10-25T06:31:17.600Z,6.18
2022-10-25T06:33:44.738Z,6.45
2022-10-25T06:36:17.108Z,7.10
2022-10-25T06:41:14.610Z,15.80
2022-10-25T06:43:41.224Z,12.02
2022-10-25T06:46:25.280Z,7.78
2022-10-25T06:48:53.935Z,6.72
2022-10-25T06:51:21.722Z,5.40
2022-10-25T06:54:00.387Z,7.13
2022-10-25T06:56:28.569Z,8.23
2022-10-25T06:58:55.931Z,7.60
2022-10-25T07:01:24.183Z,7.00
2022-10-25T07:03:53.419Z,6.53
2022-10-25T07:06:24.862Z,7.15
2022-10-25T07:08:56.531Z,7.80
2022-10-25T07:11:24.816Z,5.72
2022-10-25T07:13:51.612Z,6.15
2022-10-25T07:16:20.223Z,6.45
2022-10-25T07:18:47.355Z,4.65
2022-10-25T07:21:16.700Z,5.32
2022-10-25T07:23:43.593Z,7.75
2022-10-25T07:26:20.665Z,5.70
2022-10-25T07:28:50.434Z,6.10
2022-10-25T07:31:20.229Z,6.93
2022-10-25T07:33:48.097Z,5.68
2022-10-25T07:36:14.707Z,6.72
2022-10-25T07:38:41.454Z,6.50
2022-10-25T07:41:09.415Z,6.68
2022-10-25T07:43:37.767Z,8.57
2022-10-25T07:46:05.405Z,6.03
2022-10-25T07:48:32.711Z,7.25
2022-10-25T07:51:12.820Z,5.25
2022-10-25T07:53:40.068Z,5.38
2022-10-25T07:56:07.518Z,6.63
2022-10-25T07:58:34.417Z,5.75
2022-10-25T08:01:06.518Z,5.95
2022-10-25T08:03:33.458Z,6.60
2022-10-25T08:06:00.977Z,6.47
2022-10-25T08:08:28.880Z,5.75
2022-10-25T08:10:56.057Z,4.88
2022-10-25T08:13:22.798Z,5.97
2022-10-25T08:15:54.410Z,6.32
2022-10-25T08:18:21.392Z,6.78
2022-10-25T08:21:04.249Z,5.13
2022-10-25T08:23:32.477Z,6.40
2022-10-25T08:26:00.072Z,4.68
2022-10-25T08:28:26.706Z,5.18
2022-10-25T08:30:55.451Z,5.32
2022-10-25T08:33:22.692Z,7.53
2022-10-25T08:35:49.307Z,4.97
2022-10-25T08:38:15.881Z,7.13
2022-10-25T08:40:45.463Z,7.75
2022-10-25T08:43:57.576Z,5.65
2022-10-25T08:46:28.737Z,4.97
2022-10-25T08:49:32.410Z,7.60
2022-10-25T08:52:00.937Z,5.50
2022-10-25T08:54:39.323Z,4.88
2022-10-25T08:57:33.701Z,7.53
2022-10-25T09:00:10.468Z,6.45
2022-10-25T09:02:41.462Z,5.88
2022-10-25T09:05:40.189Z,6.40
2022-10-25T09:08:34.114Z,6.70
2022-10-25T09:11:22.876Z,7.88
2022-10-25T09:14:01.642Z,6.32
2022-10-25T09:16:56.016Z,7.05
2022-10-25T09:19:51.583Z,5.70
2022-10-25T09:22:27.137Z,4.88
2022-10-25T09:25:21.905Z,5.72
2022-10-25T09:28:03.565Z,4.90
2022-10-25T09:30:37.472Z,4.83
2022-10-25T09:33:10.164Z,5.40
2022-10-25T09:35:47.092Z,5.53
2022-10-25T09:38:25.183Z,6.72
2022-10-25T09:41:05.209Z,4.90
2022-10-25T09:43:47.161Z,7.38
2022-10-25T09:46:19.225Z,5.38
2022-10-25T09:48:56.531Z,4.20
2022-10-25T09:51:28.879Z,5.43
2022-10-25T09:56:23.110Z,3.40
2022-10-25T09:58:49.779Z,5.55
2022-10-25T10:01:21.282Z,4.40
2022-10-25T10:03:52.300Z,3.42
2022-10-25T10:06:23.722Z,4.82
2022-10-25T10:08:58.142Z,4.25
2022-10-25T10:11:25.779Z,5.78
2022-10-25T10:13:58.906Z,5.18
2022-10-25T10:16:36.334Z,4.88
2022-10-25T10:19:13.628Z,5.07
2022-10-25T10:21:45.048Z,9.02
2022-10-25T10:24:25.269Z,3.13
2022-10-25T10:27:05.574Z,3.88
2022-10-25T10:29:35.969Z,3.97
2022-10-25T10:32:21.774Z,3.95
2022-10-25T10:34:55.002Z,4.93
2022-10-25T10:37:23.950Z,4.43
2022-10-25T10:39:54.623Z,5.22
2022-10-25T10:42:32.869Z,3.28
2022-10-25T10:45:02.450Z,2.70
2022-10-25T10:47:34.167Z,15.48
2022-10-25T10:50:02.635Z,4.28
2022-10-25T10:52:40.228Z,5.63
2022-10-25T10:55:36.497Z,4.35
2022-10-25T10:58:14.639Z,4.68
2022-10-25T11:00:52.453Z,4.65
2022-10-25T11:03:48.797Z,4.00
2022-10-25T11:06:34.692Z,4.15
2022-10-25T11:09:25.326Z,4.28
2022-10-25T11:12:12.018Z,5.30
2022-10-25T11:14:38.804Z,9.23
2022-10-25T11:17:29.764Z,11.30
2022-10-25T11:20:45.530Z,14.07
2022-10-25T11:23:49.394Z,9.38
2022-10-25T11:26:24.461Z,13.38
2022-10-25T11:29:11.024Z,10.00
2022-10-25T11:32:13.006Z,6.13
2022-10-25T11:35:04.259Z,4.17
2022-10-25T11:37:39.627Z,4.55
2022-10-25T11:40:28.077Z,3.88
2022-10-25T11:43:16.586Z,3.80
2022-10-25T11:45:50.174Z,3.97
2022-10-25T11:48:58.449Z,2.75
2022-10-25T11:54:52.808Z,2.78
2022-10-25T11:57:45.650Z,3.45
2022-10-25T12:00:12.539Z,2.88
2022-10-25T12:03:13.856Z,2.60
2022-10-25T12:05:51.304Z,4.50
2022-10-25T12:08:41.446Z,3.42
2022-10-25T12:11:17.952Z,2.03
2022-10-25T12:13:51.266Z,2.13
2022-10-25T12:18:48.953Z,2.38
2022-10-25T12:21:21.629Z,3.20
2022-10-25T12:23:51.610Z,2.78
2022-10-25T12:26:26.831Z,2.20
2022-10-25T12:28:54.055Z,2.88
2022-10-25T12:31:25.816Z,3.53
2022-10-25T12:34:00.634Z,5.07
2022-10-25T12:36:40.625Z,8.25
2022-10-25T12:39:28.361Z,7.07
2022-10-25T12:42:02.394Z,5.07
2022-10-25T12:45:01.816Z,3.33
2022-10-25T12:47:47.220Z,3.67
2022-10-25T12:50:23.586Z,3.10
2022-10-25T12:53:17.960Z,1.63
2022-10-25T12:55:53.869Z,2.15
2022-10-25T12:58:35.814Z,2.60
2022-10-25T13:01:17.355Z,2.25
2022-10-25T13:03:57.517Z,1.63
2022-10-25T13:06:34.659Z,3.15
2022-10-25T13:09:10.670Z,1.98
2022-10-25T13:12:04.491Z,3.80
2022-10-25T13:14:32.838Z,2.25
2022-10-25T13:17:18.088Z,1.95
2022-10-25T13:19:54.949Z,2.63
2022-10-25T13:22:35.853Z,2.53
2022-10-25T13:25:13.712Z,17.17
2022-10-25T13:28:15.197Z,6.38
2022-10-25T13:30:43.112Z,2.63
2022-10-25T13:33:19.236Z,3.30
2022-10-25T13:35:48.910Z,2.15
2022-10-25T13:38:25.339Z,3.55
2022-10-25T13:41:18.961Z,2.95
2022-10-25T13:44:02.151Z,3.13
2022-10-25T13:46:48.071Z,2.47
2022-10-25T13:49:23.880Z,2.60
2022-10-25T13:51:53.718Z,2.42
2022-10-25T13:54:20.434Z,2.97
2022-10-25T13:56:52.789Z,2.60
2022-10-25T14:02:19.641Z,2.70
2022-10-25T14:04:46.411Z,2.13
2022-10-25T14:07:45.017Z,2.65
2022-10-25T14:10:26.795Z,2.50
2022-10-25T14:13:00.104Z,3.60
2022-10-25T14:15:48.761Z,3.08
2022-10-25T14:18:21.843Z,2.67
2022-10-25T14:20:53.180Z,2.60
2022-10-25T14:23:30.163Z,1.75
2022-10-25T14:25:59.464Z,3.17
2022-10-25T14:28:28.615Z,2.70
2022-10-25T14:31:04.623Z,3.35
2022-10-25T14:33:39.329Z,2.70
2022-10-25T14:36:32.853Z,2.67
2022-10-25T14:39:17.166Z,8.48
2022-10-25T14:42:00.607Z,2.88
2022-10-25T14:44:33.038Z,3.65
2022-10-25T14:47:00.337Z,9.02
2022-10-25T14:49:27.820Z,11.63
2022-10-25T14:51:59.680Z,16.55
2022-10-25T14:54:36.281Z,6.32
2022-10-25T14:57:07.977Z,2.55
2022-10-25T14:59:46.437Z,3.35
2022-10-25T15:02:40.198Z,2.83
2022-10-25T15:05:07.416Z,2.35
2022-10-25T15:07:41.776Z,2.75
2022-10-25T15:10:37.664Z,3.22
2022-10-25T15:13:32.114Z,3.55
2022-10-25T15:16:25.482Z,2.35
2022-10-25T15:19:11.125Z,3.38
2022-10-25T15:21:51.470Z,3.05
2022-10-25T15:24:24.765Z,2.85
2022-10-25T15:26:56.116Z,3.03
2022-10-25T15:29:46.100Z,2.50
2022-10-25T15:32:21.772Z,3.33
2022-10-25T15:34:56.859Z,2.38
2022-10-25T15:37:24.456Z,2.50
2022-10-25T15:39:52.954Z,2.35
2022-10-25T15:42:20.894Z,3.30
2022-10-25T15:44:47.606Z,3.38
2022-10-25T15:47:27.492Z,6.05
2022-10-25T15:49:55.062Z,38.53
2022-10-25T15:52:22.458Z,38.08
2022-10-25T15:54:49.298Z,38.88
2022-10-25T15:57:16.653Z,26.67
2022-10-25T15:59:43.609Z,13.07
2022-10-25T16:02:36.421Z,7.05
2022-10-25T16:05:03.220Z,4.32
2022-10-25T16:07:30.815Z,3.63
2022-10-25T16:09:57.468Z,3.95
2022-10-25T16:12:31.852Z,3.38
2022-10-25T16:14:58.479Z,3.13
2022-10-25T16:17:25.184Z,3.10
2022-10-25T16:19:51.791Z,2.67
2022-10-25T16:22:18.487Z,3.42
2022-10-25T16:24:45.106Z,3.90
2022-10-25T16:27:12.903Z,3.65
2022-10-25T16:29:39.612Z,4.10
2022-10-25T16:32:06.391Z,3.00
2022-10-25T16:34:33.175Z,2.75
2022-10-25T16:36:59.822Z,3.67
2022-10-25T16:39:26.466Z,3.20
2022-10-25T16:41:54.966Z,3.47
2022-10-25T16:44:21.704Z,4.00
2022-10-25T16:46:48.301Z,3.15
2022-10-25T16:49:15.150Z,4.03
2022-10-25T16:51:42.092Z,3.78
2022-10-25T16:54:10.142Z,4.60
2022-10-25T16:56:36.795Z,5.05
2022-10-25T16:59:03.767Z,4.18
2022-10-25T17:01:34.157Z,4.60
2022-10-25T17:04:01.891Z,4.80
2022-10-25T17:06:40.724Z,3.90
2022-10-25T17:09:07.710Z,5.70
2022-10-25T17:11:34.320Z,4.72
2022-10-25T17:14:00.893Z,4.00
2022-10-25T17:16:27.548Z,6.60
2022-10-25T17:18:54.337Z,5.80
2022-10-25T17:21:20.926Z,3.58
2022-10-25T17:23:47.574Z,5.20
2022-10-25T17:26:14.155Z,5.10
2022-10-25T17:28:43.951Z,5.68
2022-10-25T17:31:14.190Z,4.82
2022-10-25T17:33:42.189Z,5.47
2022-10-25T17:36:14.774Z,5.93
2022-10-25T17:38:42.271Z,5.68
2022-10-25T17:41:10.210Z,7.40
2022-10-25T17:43:38.455Z,7.15
2022-10-25T17:46:18.421Z,8.27
2022-10-25T17:48:45.644Z,7.50
2022-10-25T17:51:14.465Z,9.23
2022-10-25T17:53:41.470Z,21.75
2022-10-25T17:56:16.394Z,13.45
2022-10-25T17:58:45.074Z,11.30
2022-10-25T18:01:13.905Z,10.35
2022-10-25T18:03:41.085Z,8.63
2022-10-25T18:09:04.846Z,7.80
2022-10-25T18:11:31.498Z,8.35
2022-10-25T18:14:02.069Z,7.22
2022-10-25T18:16:30.928Z,7.72
2022-10-25T18:19:00.539Z,8.20
2022-10-25T18:21:27.285Z,7.75
2022-10-25T18:24:01.335Z,6.47
2022-10-25T18:26:29.387Z,6.63
2022-10-25T18:28:58.041Z,6.53
2022-10-25T18:31:26.956Z,5.57
2022-10-25T18:33:59.126Z,3.90
2022-10-25T18:38:54.662Z,5.80
2022-10-25T18:41:27.180Z,8.45
2022-10-25T18:43:54.849Z,11.27
2022-10-25T18:46:22.182Z,12.60
2022-10-25T18:48:53.277Z,12.75
2022-10-25T18:51:21.937Z,15.10
2022-10-25T18:53:52.922Z,15.02
2022-10-25T18:56:22.043Z,13.50
2022-10-25T18:59:09.541Z,13.20
2022-10-25T19:01:37.607Z,14.52
2022-10-25T19:04:04.635Z,15.93
2022-10-25T19:06:32.405Z,14.55
2022-10-25T19:08:59.459Z,13.05
2022-10-25T19:11:26.418Z,13.25
2022-10-25T19:13:55.702Z,13.35
2022-10-25T19:16:23.839Z,11.23
2022-10-25T19:18:52.800Z,11.38
2022-10-25T19:21:20.357Z,12.73
2022-10-25T19:23:48.494Z,12.52
2022-10-25T19:26:19.059Z,10.52
2022-10-25T19:28:49.340Z,10.95
2022-10-25T19:31:17.684Z,11.02
2022-10-25T19:33:48.801Z,12.75
2022-10-25T19:36:16.857Z,10.60
2022-10-25T19:38:50.147Z,11.40
2022-10-25T19:41:19.766Z,8.57
2022-10-25T19:43:46.872Z,11.00
2022-10-25T19:46:13.812Z,10.32
2022-10-25T19:48:40.690Z,7.72
2022-10-25T19:51:15.530Z,11.35
2022-10-25T19:53:42.682Z,8.13
2022-10-25T19:56:17.342Z,9.15
2022-10-25T19:58:44.367Z,8.75
2022-10-25T20:01:16.579Z,8.77
2022-10-25T20:06:18.785Z,8.13
2022-10-25T20:08:48.505Z,10.90
2022-10-25T20:11:16.923Z,10.07
2022-10-25T20:13:43.947Z,10.30
2022-10-25T20:16:11.287Z,10.15
2022-10-25T20:18:39.366Z,9.10
2022-10-25T20:21:10.364Z,10.07
2022-10-25T20:23:37.798Z,9.88
2022-10-25T20:26:16.527Z,12.95
2022-10-25T20:28:43.589Z,11.57
2022-10-25T20:31:10.828Z,12.68
2022-10-25T20:33:38.458Z,11.82
2022-10-25T20:36:09.858Z,11.18
2022-10-25T20:38:37.408Z,11.05
2022-10-25T20:41:05.842Z,10.40
2022-10-25T20:43:33.433Z,10.25
2022-10-25T20:46:00.457Z,10.90
2022-10-25T20:48:27.347Z,10.63
2022-10-25T20:50:54.039Z,9.35
2022-10-25T20:53:21.406Z,11.90
2022-10-25T20:55:48.989Z,10.20
2022-10-25T20:58:19.950Z,9.88
2022-10-25T21:00:47.393Z,9.02
2022-10-25T21:03:15.292Z,10.75
2022-10-25T21:05:45.228Z,10.48
2022-10-25T21:08:15.433Z,9.18
2022-10-25T21:10:43.087Z,9.18
2022-10-25T21:13:10.802Z,8.95
2022-10-25T21:15:37.794Z,8.85
2022-10-25T21:18:04.483Z,10.98
2022-10-25T21:20:32.491Z,9.23
2022-10-25T21:22:59.096Z,9.82
2022-10-25T21:25:25.682Z,9.65
2022-10-25T21:27:55.779Z,9.40
2022-10-25T21:30:23.126Z,10.13
2022-10-25T21:32:49.790Z,9.32
2022-10-25T21:35:16.642Z,10.32
2022-10-25T21:37:45.511Z,9.48
2022-10-25T21:40:18.230Z,8.75
2022-10-25T21:42:45.547Z,9.60
2022-10-25T21:45:12.471Z,12.02
2022-10-25T21:47:39.179Z,10.48
2022-10-25T21:50:07.139Z,8.27
2022-10-25T21:52:33.764Z,10.40
2022-10-25T21:55:00.370Z,9.50
2022-10-25T21:57:27.070Z,10.82
2022-10-25T21:59:53.836Z,10.23
2022-10-25T22:02:20.645Z,10.27
2022-10-25T22:04:47.585Z,9.73
2022-10-25T22:07:14.173Z,10.82
2022-10-25T22:09:40.873Z,9.25
2022-10-25T22:12:07.570Z,8.52
2022-10-25T22:14:34.281Z,11.02
2022-10-25T22:17:00.979Z,9.88
2022-10-25T22:19:27.551Z,10.13
2022-10-25T22:21:54.204Z,6.93
2022-10-25T22:24:21.317Z,8.65
2022-10-25T22:26:50.380Z,8.95
2022-10-25T22:29:16.966Z,9.85
2022-10-25T22:31:43.606Z,8.43
2022-10-25T22:34:10.778Z,9.15
2022-10-25T22:36:39.659Z,8.02
2022-10-25T22:39:07.480Z,7.75
2022-10-25T22:41:34.442Z,6.38
2022-10-25T22:46:52.962Z,8.25
2022-10-25T22:49:19.611Z,7.80
2022-10-25T22:51:46.268Z,7.65
2022-10-25T22:54:13.050Z,7.35
2022-10-25T22:56:39.638Z,9.20
2022-10-25T22:59:06.973Z,7.13
2022-10-25T23:01:35.759Z,8.32
2022-10-25T23:04:04.703Z,7.47
2022-10-25T23:06:33.978Z,6.28
2022-10-25T23:09:03.478Z,8.30
2022-10-25T23:11:32.739Z,7.40
2022-10-25T23:14:00.476Z,7.93
2022-10-25T23:16:28.246Z,7.05
2022-10-25T23:18:55.322Z,7.63
2022-10-25T23:21:26.632Z,8.02
2022-10-25T23:23:54.351Z,7.88
2022-10-25T23:26:26.067Z,8.52
2022-10-25T23:28:55.536Z,8.45
2022-10-25T23:31:22.584Z,8.15
2022-10-25T23:33:54.023Z,6.50
2022-10-25T23:36:22.685Z,7.70
2022-10-25T23:38:50.868Z,8.70
2022-10-25T23:41:19.043Z,5.93
2022-10-25T23:43:46.010Z,7.90
2022-10-25T23:46:12.902Z,7.28
2022-10-25T23:48:39.913Z,7.15
2022-10-25T23:51:09.225Z,8.80
2022-10-25T23:53:36.208Z,7.15
2022-10-25T23:56:04.555Z,9.75
2022-10-25T23:58:31.499Z,8.60
